Terminal Aerodrome Forecast
Issued by NWS

Home | Current Version | Previous Version | Text Only | Print | Product List | Glossary On
Versions: 1 2 3 4 5 6 7 8 9 10 11 12 13 14 15 16 17 18 19 20 21 22 23 24
000
FTUS46 KLOX 190500
TAFSBP
TAF
KSBP 190522Z 1906/2006 31007KT P6SM OVC019
     FM191200 VRB03KT P6SM OVC008
     FM191800 29006KT P6SM OVC015
     FM192100 30012KT P6SM SKC
     FM200300 VRB03KT P6SM BKN025=

USA.gov is the U.S. government's official web portal to all federal, state and local government web resources and services.